Terminal Aerodrome Forecast
Issued by NWS

Home | Current Version | Previous Version | Text Only | Print | Product List | Glossary On
Versions: 1 2 3 4 5 6 7 8 9 10 11 12 13 14 15 16 17 18 19 20 21 22 23 24 25 26
000
FTUS43 KMQT 231700 RRA
TAFSAW
TAF
KSAW 231743Z 2318/2418 09004KT 5SM BR VCSH SCT004 OVC008
      TEMPO 2318/2319 4SM BR BKN004
     FM232000 11006KT P6SM OVC015
     FM232200 09008KT P6SM OVC035
     FM240400 12006KT 5SM BR OVC020
     FM240900 14005KT 3SM BR OVC010
     FM241200 15007KT 6SM BR BKN035
      AMD LTD TO CLD VIS AND WIND 2402/2410=

USA.gov is the U.S. government's official web portal to all federal, state and local government web resources and services.